Time;durP1;ratioP1;P1;durP2;ratioP2;P2;SDS_P1;SDS_P2;PMS_P1;PMS_P2;Temp;Humidity;BMP_temperature;BMP_pressure;BME280_temperature;BME280_humidity;BME280_pressure;Samples;Min_cycle;Max_cycle;Signal;HPM_P1;HPM_P2
2022/09/08 00:02:14;;;;;;;30.13;27.63;;;18.60;99.90;;;;;;5021176;28;20496;-75
2022/09/08 00:04:40;;;;;;;28.65;26.15;;;18.60;99.90;;;;;;5024538;28;20041;-75
2022/09/08 00:07:06;;;;;;;29.50;26.98;;;18.60;99.90;;;;;;5005715;28;20450;-75
2022/09/08 00:09:32;;;;;;;30.50;27.90;;;18.50;99.90;;;;;;5021506;28;20116;-75
2022/09/08 00:11:58;;;;;;;29.73;27.13;;;18.50;99.90;;;;;;5025140;28;20386;-75
2022/09/08 00:14:24;;;;;;;29.33;26.75;;;18.50;99.90;;;;;;5018464;28;20459;-75
2022/09/08 00:16:50;;;;;;;30.05;27.55;;;18.50;99.90;;;;;;5018591;28;20041;-75
2022/09/08 00:19:16;;;;;;;30.83;28.30;;;18.50;99.90;;;;;;5020766;28;20132;-75
2022/09/08 00:21:42;;;;;;;30.08;27.42;;;18.50;99.90;;;;;;5026695;28;20132;-75
2022/09/08 00:24:07;;;;;;;30.95;28.42;;;18.50;99.90;;;;;;5020586;28;20056;-75
2022/09/08 00:26:33;;;;;;;32.88;30.20;;;18.50;99.90;;;;;;5025306;28;20455;-76
2022/09/08 00:28:59;;;;;;;32.88;29.98;;;18.50;99.90;;;;;;5018538;28;20461;-75
2022/09/08 00:31:24;;;;;;;31.25;28.35;;;18.50;99.90;;;;;;5022509;28;20045;-75
2022/09/08 00:33:50;;;;;;;33.00;30.27;;;18.40;99.90;;;;;;5006274;28;20037;-75
2022/09/08 00:36:17;;;;;;;34.30;31.38;;;18.40;99.90;;;;;;5003962;28;20046;-75
2022/09/08 00:38:44;;;;;;;32.88;30.08;;;18.40;99.90;;;;;;5023988;28;20049;-75
2022/09/08 00:41:11;;;;;;;32.78;29.98;;;18.40;99.90;;;;;;5001552;28;20488;-75
2022/09/08 00:43:45;;;;;;;33.80;31.05;;;18.40;99.90;;;;;;5020598;28;20037;-75
2022/09/08 00:46:20;;;;;;;32.83;30.02;;;18.30;99.90;;;;;;5004104;28;20079;-75
2022/09/08 00:48:48;;;;;;;32.65;29.77;;;18.30;99.90;;;;;;5023266;28;20037;-75
2022/09/08 00:51:16;;;;;;;33.35;30.65;;;18.30;99.90;;;;;;5021824;28;20132;-75
2022/09/08 00:53:44;;;;;;;35.55;32.53;;;18.30;99.90;;;;;;5024146;28;20127;-75
2022/09/08 00:56:10;;;;;;;34.67;31.60;;;18.30;99.90;;;;;;5006030;28;20467;-75
2022/09/08 00:58:38;;;;;;;35.70;32.80;;;18.30;99.90;;;;;;5019057;28;20045;-75
2022/09/08 01:01:05;;;;;;;36.53;33.35;;;18.30;99.90;;;;;;5002647;28;20038;-75
2022/09/08 01:03:34;;;;;;;35.15;32.25;;;18.30;99.90;;;;;;5003004;28;20061;-75
2022/09/08 01:12:43;;;;;;;35.60;32.58;;;18.30;99.90;;;;;;5000765;28;20057;-75
2022/09/08 01:14:56;;;;;;;34.75;31.88;;;18.40;99.90;;;;;;5005994;28;20148;-75
2022/09/08 01:17:26;;;;;;;35.25;32.08;;;18.30;99.90;;;;;;5023564;28;20112;-75
2022/09/08 01:19:53;;;;;;;33.95;31.08;;;18.30;99.90;;;;;;5022057;28;20120;-78
2022/09/08 01:22:46;;;;;;;37.85;34.60;;;18.30;99.90;;;;;;5006043;28;20046;-75
2022/09/08 01:25:28;;;;;;;36.85;33.65;;;18.30;99.90;;;;;;5019029;28;20107;-75
2022/09/08 01:28:24;;;;;;;35.80;32.90;;;18.30;99.90;;;;;;5002898;28;20061;-75
2022/09/08 01:30:50;;;;;;;34.30;31.00;;;18.30;99.90;;;;;;5022433;28;20041;-75
2022/09/08 01:33:17;;;;;;;37.58;34.17;;;18.40;99.90;;;;;;5005370;28;20373;-75
2022/09/08 01:35:43;;;;;;;35.63;32.55;;;18.40;99.90;;;;;;5001999;28;20650;-76
2022/09/08 01:38:10;;;;;;;36.67;33.38;;;18.40;99.90;;;;;;5021675;28;20126;-75
2022/09/08 01:40:38;;;;;;;38.10;34.75;;;18.40;99.90;;;;;;5022025;28;20481;-75
2022/09/08 01:43:07;;;;;;;39.33;35.78;;;18.40;99.90;;;;;;5023017;28;20053;-75
2022/09/08 01:45:34;;;;;;;38.30;34.97;;;18.40;99.90;;;;;;5022449;28;20045;-75
2022/09/08 01:47:59;;;;;;;37.88;34.78;;;18.40;99.90;;;;;;4998811;28;20038;-75
2022/09/08 01:50:25;;;;;;;36.90;33.90;;;18.40;99.90;;;;;;5021888;28;20068;-75
2022/09/08 01:52:51;;;;;;;39.42;35.85;;;18.50;99.90;;;;;;5022165;28;20082;-75
2022/09/08 01:55:17;;;;;;;38.03;34.80;;;18.40;99.90;;;;;;5023137;28;20077;-75
2022/09/08 01:57:43;;;;;;;38.35;34.92;;;18.40;99.90;;;;;;5026160;28;20079;-75
2022/09/08 02:00:09;;;;;;;38.88;35.58;;;18.40;99.90;;;;;;5016722;28;20037;-75
2022/09/08 02:02:35;;;;;;;38.38;35.08;;;18.40;99.90;;;;;;5001262;28;20057;-75
2022/09/08 02:05:01;;;;;;;40.80;37.13;;;18.40;99.90;;;;;;5026703;28;20124;-75
2022/09/08 02:07:26;;;;;;;39.70;36.35;;;18.40;99.90;;;;;;5007424;28;20125;-75
2022/09/08 02:09:53;;;;;;;41.55;38.03;;;18.40;99.90;;;;;;5024758;28;20533;-75
2022/09/08 02:12:19;;;;;;;43.20;39.50;;;18.40;99.90;;;;;;5007748;28;20480;-75
2022/09/08 02:14:45;;;;;;;43.17;39.53;;;18.40;99.90;;;;;;5020935;28;20567;-75
2022/09/08 02:17:11;;;;;;;41.90;38.30;;;18.40;99.90;;;;;;5018387;28;20057;-75
2022/09/08 02:19:36;;;;;;;42.85;39.30;;;18.40;99.90;;;;;;5020275;28;20038;-75
2022/09/08 02:22:02;;;;;;;42.92;39.00;;;18.40;99.90;;;;;;5011934;28;20072;-75
2022/09/08 02:24:28;;;;;;;43.80;40.00;;;18.40;99.90;;;;;;5027489;28;20080;-75
2022/09/08 02:26:55;;;;;;;44.60;40.67;;;18.40;99.90;;;;;;5023265;28;20415;-75
2022/09/08 02:29:21;;;;;;;43.75;39.47;;;18.40;99.90;;;;;;5019230;28;20135;-75
2022/09/08 02:31:47;;;;;;;44.65;40.70;;;18.40;99.90;;;;;;4999580;28;20045;-75
2022/09/08 02:34:13;;;;;;;44.28;40.47;;;18.50;99.90;;;;;;5020631;28;20167;-75
2022/09/08 02:36:38;;;;;;;46.08;42.05;;;18.40;99.90;;;;;;5019816;28;20073;-76
2022/09/08 02:39:04;;;;;;;44.15;40.25;;;18.40;99.90;;;;;;5024077;28;20403;-75
2022/09/08 02:41:30;;;;;;;43.67;39.85;;;18.50;99.90;;;;;;5009451;28;20095;-75
2022/09/08 02:43:56;;;;;;;43.13;39.38;;;18.40;99.90;;;;;;5026386;28;20045;-75
2022/09/08 02:46:23;;;;;;;42.75;39.15;;;18.40;99.90;;;;;;5010016;28;20095;-76
2022/09/08 02:48:48;;;;;;;43.75;39.95;;;18.40;99.90;;;;;;5025535;28;20042;-75
2022/09/08 02:51:19;;;;;;;44.55;40.72;;;18.40;99.90;;;;;;5007845;28;20044;-75
2022/09/08 02:53:44;;;;;;;44.20;40.40;;;18.40;99.90;;;;;;5010088;28;20144;-76
2022/09/08 02:56:10;;;;;;;46.22;42.17;;;18.40;99.90;;;;;;5028277;28;20128;-75
2022/09/08 02:58:36;;;;;;;45.13;41.13;;;18.40;99.90;;;;;;5007973;28;20065;-75
2022/09/08 03:01:03;;;;;;;46.30;42.30;;;18.40;99.90;;;;;;5021340;28;20076;-75
2022/09/08 03:03:28;;;;;;;44.85;40.97;;;18.40;99.90;;;;;;5025616;28;20049;-75
2022/09/08 03:05:54;;;;;;;45.13;41.15;;;18.50;99.90;;;;;;5023340;28;20042;-75
2022/09/08 03:08:21;;;;;;;45.28;41.45;;;18.40;99.90;;;;;;5001587;28;20435;-75
2022/09/08 03:10:50;;;;;;;43.10;39.15;;;18.40;99.90;;;;;;5023610;28;20048;-75
2022/09/08 03:13:17;;;;;;;44.45;40.40;;;18.40;99.90;;;;;;5002830;28;20046;-75
2022/09/08 03:15:43;;;;;;;46.33;42.33;;;18.40;99.90;;;;;;5005760;28;20065;-75
2022/09/08 03:18:10;;;;;;;45.13;41.13;;;18.50;99.90;;;;;;5008613;28;20053;-75
2022/09/08 03:20:37;;;;;;;46.17;42.10;;;18.40;99.90;;;;;;5024828;28;20167;-75
2022/09/08 03:23:03;;;;;;;;;;;18.50;99.90;;;;;;5023433;28;20429;-76
2022/09/08 03:25:29;;;;;;;47.28;43.08;;;18.40;99.90;;;;;;5022743;28;20019;-75
2022/09/08 03:27:55;;;;;;;44.17;40.45;;;18.40;99.90;;;;;;5025451;28;20408;-75
2022/09/08 03:30:21;;;;;;;44.15;40.33;;;18.40;99.90;;;;;;5007198;28;20044;-75
2022/09/08 03:32:48;;;;;;;44.80;40.78;;;18.40;99.90;;;;;;5005395;28;20665;-76
2022/09/08 03:35:16;;;;;;;47.35;43.00;;;18.40;99.90;;;;;;5020103;28;21344;-77
2022/09/08 03:37:43;;;;;;;44.85;41.00;;;18.40;99.90;;;;;;5013316;28;20136;-76
2022/09/08 03:40:15;;;;;;;45.63;41.42;;;18.40;99.90;;;;;;5004151;28;20485;-76
2022/09/08 03:42:42;;;;;;;48.00;43.67;;;18.40;99.90;;;;;;5025015;28;20069;-75
2022/09/08 03:45:11;;;;;;;46.45;41.90;;;18.40;99.90;;;;;;5019441;28;20053;-76
2022/09/08 03:47:37;;;;;;;47.10;43.00;;;18.40;99.90;;;;;;5006080;28;20041;-76
2022/09/08 03:50:04;;;;;;;45.45;41.40;;;18.40;99.90;;;;;;5024932;28;20386;-75
2022/09/08 03:52:30;;;;;;;46.42;42.33;;;18.30;99.90;;;;;;5022949;28;20730;-76
2022/09/08 03:54:57;;;;;;;46.97;42.90;;;18.30;99.90;;;;;;5005495;28;20108;-76
2022/09/08 03:57:25;;;;;;;46.65;42.55;;;18.30;99.90;;;;;;5026280;28;20041;-76
2022/09/08 03:59:53;;;;;;;48.22;44.05;;;18.30;99.90;;;;;;5022261;28;20076;-76
2022/09/08 04:02:20;;;;;;;47.95;43.85;;;18.30;99.90;;;;;;5024302;28;20052;-76
2022/09/08 04:04:51;;;;;;;46.95;42.80;;;18.30;99.90;;;;;;5005364;28;21036;-75
2022/09/08 04:07:19;;;;;;;47.50;43.50;;;18.30;99.90;;;;;;5005395;28;20052;-76
2022/09/08 04:09:45;;;;;;;48.60;44.38;;;18.30;99.90;;;;;;5021788;28;20512;-76
2022/09/08 04:12:11;;;;;;;48.00;43.83;;;18.30;99.90;;;;;;5020799;28;20500;-76
2022/09/08 04:14:38;;;;;;;50.15;45.92;;;18.30;99.90;;;;;;5005611;28;20080;-76
2022/09/08 04:17:04;;;;;;;49.90;45.45;;;18.30;99.90;;;;;;5006675;28;20162;-76
2022/09/08 04:19:30;;;;;;;50.67;46.30;;;18.30;99.90;;;;;;5002003;28;20061;-76
2022/09/08 04:21:55;;;;;;;48.28;44.00;;;18.30;99.90;;;;;;5007829;28;20050;-76
2022/09/08 04:24:22;;;;;;;48.90;44.50;;;18.30;99.90;;;;;;5002818;28;20046;-76
2022/09/08 04:26:48;;;;;;;48.60;44.40;;;18.30;99.90;;;;;;5025441;28;20049;-76
2022/09/08 04:29:15;;;;;;;51.25;46.90;;;18.30;99.90;;;;;;5017284;28;20069;-76
2022/09/08 04:31:41;;;;;;;50.28;45.78;;;18.20;99.90;;;;;;5007171;28;20052;-76
2022/09/08 04:34:07;;;;;;;50.42;45.90;;;18.30;99.90;;;;;;5006809;28;20914;-76
2022/09/08 04:36:34;;;;;;;50.85;46.28;;;18.30;99.90;;;;;;5023313;28;20076;-75
2022/09/08 04:39:00;;;;;;;51.47;46.93;;;18.20;99.90;;;;;;5021482;28;20053;-75
2022/09/08 04:41:28;;;;;;;49.00;44.67;;;18.30;99.90;;;;;;4997400;28;20042;-75
2022/09/08 04:43:55;;;;;;;49.70;45.42;;;18.20;99.90;;;;;;4997981;28;20045;-75
2022/09/08 04:46:20;;;;;;;50.95;46.42;;;18.20;99.90;;;;;;5024052;28;20041;-75
2022/09/08 04:48:47;;;;;;;53.17;48.33;;;18.20;99.90;;;;;;5005732;28;20037;-75
2022/09/08 04:51:16;;;;;;;52.17;47.58;;;18.20;99.90;;;;;;5004870;28;20126;-75
2022/09/08 04:53:43;;;;;;;54.53;49.60;;;18.10;99.90;;;;;;5022542;28;20081;-75
2022/09/08 04:56:10;;;;;;;51.38;46.88;;;18.10;99.90;;;;;;5015054;28;20053;-78
2022/09/08 04:58:37;;;;;;;;;;;18.10;99.90;;;;;;5027181;28;20049;-77
2022/09/08 05:01:04;;;;;;;54.20;49.40;;;18.10;99.90;;;;;;5014810;28;19921;-76
2022/09/08 05:03:30;;;;;;;53.22;48.63;;;18.10;99.90;;;;;;5005625;28;20121;-76
2022/09/08 05:05:56;;;;;;;53.75;48.50;;;18.10;99.90;;;;;;5024240;28;20087;-76
2022/09/08 05:08:22;;;;;;;52.95;48.33;;;18.10;99.90;;;;;;5016166;28;20419;-77
2022/09/08 05:10:48;;;;;;;52.40;47.83;;;18.20;99.90;;;;;;5007021;28;20057;-76
2022/09/08 05:13:14;;;;;;;55.65;50.65;;;18.10;99.90;;;;;;5018931;28;20585;-77
2022/09/08 05:15:40;;;;;;;55.05;50.25;;;18.20;99.90;;;;;;5024552;28;20041;-77
2022/09/08 05:18:05;;;;;;;55.38;50.50;;;18.20;99.90;;;;;;5022209;28;20129;-77
2022/09/08 05:20:31;;;;;;;52.85;48.08;;;18.10;99.90;;;;;;5023116;28;20054;-79
2022/09/08 05:22:57;;;;;;;52.83;48.13;;;18.10;99.90;;;;;;5025853;28;20056;-76
2022/09/08 05:25:22;;;;;;;55.22;50.28;;;18.10;99.90;;;;;;5003868;28;20041;-76
2022/09/08 05:27:48;;;;;;;57.00;51.67;;;18.10;99.90;;;;;;5025418;28;20428;-78
2022/09/08 05:30:15;;;;;;;53.45;48.53;;;18.10;99.90;;;;;;5022262;28;20065;-75
2022/09/08 05:32:44;;;;;;;54.05;49.38;;;18.20;99.90;;;;;;5025152;28;20053;-74
2022/09/08 05:35:13;;;;;;;52.55;47.78;;;18.20;99.90;;;;;;5007910;28;20840;-76
2022/09/08 05:37:42;;;;;;;52.72;48.22;;;18.20;99.90;;;;;;5024813;28;20073;-75
2022/09/08 05:40:09;;;;;;;54.40;49.60;;;18.10;99.90;;;;;;5006986;28;20485;-80
2022/09/08 05:42:34;;;;;;;58.35;53.25;;;18.20;99.90;;;;;;5026104;28;20049;-79
2022/09/08 05:45:00;;;;;;;55.38;50.35;;;18.20;99.90;;;;;;5027755;28;20061;-78
2022/09/08 05:47:26;;;;;;;56.40;51.08;;;18.20;99.90;;;;;;5027470;28;20041;-77
2022/09/08 05:49:55;;;;;;;55.30;50.30;;;18.20;99.90;;;;;;5026808;28;20075;-78
2022/09/08 05:52:20;;;;;;;55.00;50.03;;;18.20;99.90;;;;;;5022836;28;20104;-78
2022/09/08 05:54:49;;;;;;;55.47;50.58;;;18.20;99.90;;;;;;5025101;28;20515;-76
2022/09/08 05:57:15;;;;;;;57.88;52.72;;;18.20;99.90;;;;;;5024025;28;20091;-77
2022/09/08 05:59:44;;;;;;;56.03;50.72;;;18.20;99.90;;;;;;5024606;28;20392;-78
2022/09/08 06:02:09;;;;;;;56.63;51.33;;;18.20;99.90;;;;;;5024235;28;20099;-77
2022/09/08 06:04:35;;;;;;;56.75;51.50;;;18.20;99.90;;;;;;5023250;28;20053;-77
2022/09/08 06:07:01;;;;;;;58.72;52.85;;;18.30;99.90;;;;;;5027849;28;20052;-76
2022/09/08 06:09:27;;;;;;;61.05;55.42;;;18.30;99.90;;;;;;5024458;28;20120;-76
2022/09/08 06:11:55;;;;;;;59.97;54.55;;;18.20;99.90;;;;;;5005486;28;20073;-76
2022/09/08 06:14:21;;;;;;;59.33;53.72;;;18.20;99.90;;;;;;5025682;28;20365;-77
2022/09/08 06:16:47;;;;;;;60.47;54.95;;;18.20;99.90;;;;;;5003163;28;20060;-76
2022/09/08 06:19:13;;;;;;;57.65;52.38;;;18.20;99.90;;;;;;5002921;28;20077;-76
2022/09/08 06:21:38;;;;;;;59.80;54.42;;;18.20;99.90;;;;;;5025789;28;20041;-76
2022/09/08 06:24:05;;;;;;;58.83;53.38;;;18.10;99.90;;;;;;5023094;28;20080;-77
2022/09/08 06:27:02;;;;;;;62.30;56.47;;;18.10;99.90;;;;;;5010183;28;20084;-76
2022/09/08 06:29:45;;;;;;;60.72;55.05;;;18.10;99.90;;;;;;5025537;28;20053;-76
2022/09/08 06:32:52;;;;;;;58.03;52.50;;;18.10;99.90;;;;;;5008833;28;20410;-76
2022/09/08 06:36:02;;;;;;;51.35;46.65;;;18.10;99.90;;;;;;5017065;28;20050;-76
2022/09/08 06:38:46;;;;;;;46.67;42.30;;;18.10;99.90;;;;;;4990095;28;20058;-76
2022/09/08 06:41:20;;;;;;;38.35;34.53;;;18.10;99.90;;;;;;5023025;28;20560;-77
2022/09/08 06:44:01;;;;;;;26.65;24.05;;;18.10;99.90;;;;;;5021640;28;20042;-77
2022/09/08 06:46:37;;;;;;;23.00;20.58;;;18.10;99.90;;;;;;5024343;28;20044;-76
2022/09/08 06:49:03;;;;;;;23.63;21.23;;;18.10;99.90;;;;;;5008662;28;20045;-76
2022/09/08 06:51:58;;;;;;;23.85;21.35;;;18.10;99.90;;;;;;5022233;28;20034;-74
2022/09/08 06:54:48;;;;;;;26.20;22.25;;;18.10;99.90;;;;;;5003978;28;20629;-77
2022/09/08 06:57:21;;;;;;;30.23;26.08;;;18.10;99.90;;;;;;4994290;28;20058;-76
2022/09/08 07:00:08;;;;;;;29.60;26.67;;;18.00;99.90;;;;;;5009263;28;20156;-75
2022/09/08 07:02:48;;;;;;;30.20;27.27;;;18.00;99.90;;;;;;5027865;28;20053;-74
2022/09/08 07:05:42;;;;;;;28.98;26.02;;;18.00;99.90;;;;;;4991207;28;20458;-77
2022/09/08 07:08:07;;;;;;;32.00;28.90;;;18.10;99.90;;;;;;5011481;28;20739;-77
2022/09/08 07:10:54;;;;;;;32.42;29.23;;;18.10;99.90;;;;;;5025741;28;20045;-77
2022/09/08 07:13:29;;;;;;;29.60;26.77;;;18.10;99.90;;;;;;5011417;28;20053;-77
2022/09/08 07:16:21;;;;;;;28.55;25.75;;;18.10;99.90;;;;;;5022827;28;20602;-77
2022/09/08 07:18:52;;;;;;;30.60;27.63;;;18.10;99.90;;;;;;5019643;28;20048;-76
2022/09/08 07:21:54;;;;;;;29.25;26.45;;;18.10;99.90;;;;;;5023250;28;20045;-77
2022/09/08 07:24:23;;;;;;;31.27;28.38;;;18.10;99.90;;;;;;4997242;28;20073;-78
2022/09/08 07:26:59;;;;;;;33.75;30.17;;;18.10;99.90;;;;;;5023603;28;20126;-76
2022/09/08 07:29:45;;;;;;;34.85;31.10;;;18.10;99.90;;;;;;5007152;28;20037;-77
2022/09/08 07:32:35;;;;;;;33.95;30.90;;;18.20;99.90;;;;;;5009226;28;20095;-74
2022/09/08 07:35:12;;;;;;;35.13;31.92;;;18.20;99.90;;;;;;5026172;28;20045;-74
2022/09/08 07:37:50;;;;;;;38.85;35.35;;;18.20;99.90;;;;;;5006372;28;20081;-77
2022/09/08 07:40:35;;;;;;;37.03;33.63;;;18.20;99.90;;;;;;5022043;28;20041;-78
2022/09/08 07:43:07;;;;;;;38.35;34.67;;;18.20;99.90;;;;;;5005021;28;20049;-77
2022/09/08 07:45:48;;;;;;;40.58;36.90;;;18.20;99.90;;;;;;5023722;28;20080;-78
2022/09/08 07:48:17;;;;;;;39.83;36.13;;;18.20;99.90;;;;;;5005299;28;20075;-79
2022/09/08 07:50:55;;;;;;;40.60;36.85;;;18.20;99.90;;;;;;5005357;28;20050;-77
2022/09/08 07:53:50;;;;;;;42.45;38.58;;;18.20;99.90;;;;;;5000236;28;20045;-77
2022/09/08 07:56:37;;;;;;;41.60;37.63;;;18.20;99.90;;;;;;5006715;28;20037;-75
2022/09/08 07:59:18;;;;;;;43.28;39.45;;;18.20;99.90;;;;;;5006894;28;20136;-78
2022/09/08 08:02:16;;;;;;;45.22;40.95;;;18.10;99.90;;;;;;5024829;28;20504;-76
2022/09/08 08:05:07;;;;;;;44.97;40.95;;;18.10;99.90;;;;;;4959757;28;20052;-76
2022/09/08 08:07:53;;;;;;;44.63;40.40;;;18.10;99.90;;;;;;5020327;28;20041;-76
2022/09/08 08:10:27;;;;;;;47.00;42.53;;;18.00;99.90;;;;;;5024781;28;20045;-76
2022/09/08 08:13:28;;;;;;;48.75;44.15;;;18.00;99.90;;;;;;5015955;28;20038;-76
2022/09/08 08:16:09;;;;;;;50.05;45.45;;;18.00;99.90;;;;;;5007259;28;20053;-76
2022/09/08 08:18:47;;;;;;;52.72;47.47;;;18.00;99.90;;;;;;5027934;28;20631;-76
2022/09/08 08:21:29;;;;;;;53.45;48.28;;;17.90;99.90;;;;;;5006628;28;20107;-75
2022/09/08 08:24:06;;;;;;;49.85;44.97;;;17.90;99.90;;;;;;5024639;28;20076;-75
2022/09/08 08:26:53;;;;;;;56.73;51.03;;;17.80;99.90;;;;;;5026248;28;20052;-77
2022/09/08 08:29:36;;;;;;;57.28;51.67;;;17.80;99.90;;;;;;5025006;28;20037;-77
2022/09/08 08:32:08;;;;;;;55.30;49.63;;;17.80;99.90;;;;;;5022709;28;20056;-73
2022/09/08 08:34:40;;;;;;;52.60;47.45;;;17.70;99.90;;;;;;5020211;28;20069;-78
2022/09/08 08:37:08;;;;;;;51.80;46.75;;;17.70;99.90;;;;;;5021415;28;20057;-76
2022/09/08 08:39:36;;;;;;;47.63;43.22;;;17.70;99.90;;;;;;5025180;28;20045;-78
2022/09/08 08:42:13;;;;;;;43.75;39.63;;;17.60;99.90;;;;;;5021679;28;20049;-75
2022/09/08 08:44:48;;;;;;;41.10;37.08;;;17.70;99.90;;;;;;4999426;28;20084;-77
2022/09/08 08:47:41;;;;;;;37.13;33.45;;;17.70;99.90;;;;;;5007619;28;20412;-80
2022/09/08 08:50:38;;;;;;;29.35;26.50;;;17.70;99.90;;;;;;5022155;28;20813;-80
2022/09/08 08:53:41;;;;;;;26.50;23.77;;;17.70;99.90;;;;;;5015564;28;20100;-83
2022/09/08 08:56:19;;;;;;;26.83;24.05;;;17.70;99.90;;;;;;4984082;28;20057;-77
2022/09/08 08:59:15;;;;;;;25.95;23.20;;;17.70;99.90;;;;;;5022028;28;20669;-78
2022/09/08 09:02:14;;;;;;;27.05;24.52;;;17.70;99.90;;;;;;5001468;28;20049;-76
2022/09/08 09:05:02;;;;;;;27.42;24.83;;;17.70;99.90;;;;;;5001089;28;20060;-77
2022/09/08 09:08:08;;;;;;;25.35;23.05;;;17.70;99.90;;;;;;5024268;28;20139;-76
2022/09/08 09:10:58;;;;;;;26.33;23.83;;;17.70;99.90;;;;;;5030447;28;20053;-76
2022/09/08 09:17:17;;;;;;;22.85;20.48;;;17.70;99.90;;;;;;5025074;28;20804;-74
2022/09/08 09:20:25;;;;;;;20.35;18.35;;;17.80;99.90;;;;;;5025747;28;20049;-76
2022/09/08 09:22:55;;;;;;;18.95;17.10;;;17.80;99.90;;;;;;4980480;28;20084;-77
2022/09/08 09:25:36;;;;;;;17.92;16.25;;;17.90;99.90;;;;;;5029826;28;20041;-76
2022/09/08 09:28:41;;;;;;;18.30;16.40;;;17.90;99.90;;;;;;5028635;28;20099;-77
2022/09/08 09:31:37;;;;;;;18.17;15.85;;;17.90;99.90;;;;;;5030813;28;20033;-77
2022/09/08 09:34:40;;;;;;;17.77;15.60;;;17.90;99.90;;;;;;5023029;28;20037;-76
2022/09/08 09:37:27;;;;;;;16.65;14.93;;;18.00;99.90;;;;;;5012054;28;20057;-76
2022/09/08 09:40:03;;;;;;;17.25;15.45;;;18.00;99.90;;;;;;5009606;28;20854;-76
2022/09/08 09:42:50;;;;;;;17.30;15.63;;;18.00;99.90;;;;;;5013614;28;20583;-76
2022/09/08 09:45:46;;;;;;;17.27;15.57;;;18.00;99.90;;;;;;5011501;28;20045;-76
2022/09/08 09:48:29;;;;;;;16.05;14.45;;;18.10;99.90;;;;;;5027053;28;20119;-74
2022/09/08 09:51:08;;;;;;;15.35;13.85;;;18.10;99.90;;;;;;5001267;28;20045;-77
2022/09/08 09:54:02;;;;;;;13.63;12.25;;;18.10;99.90;;;;;;5011988;28;20063;-78
2022/09/08 09:57:14;;;;;;;11.77;10.68;;;18.10;99.90;;;;;;5001992;28;20041;-78
2022/09/08 10:00:07;;;;;;;10.45;9.45;;;18.20;99.90;;;;;;5023010;28;20928;-82
2022/09/08 10:02:39;;;;;;;10.43;9.43;;;18.20;99.90;;;;;;5027215;28;20053;-78
2022/09/08 10:05:25;;;;;;;11.13;10.13;;;18.20;99.90;;;;;;5000169;28;20055;-79
2022/09/08 10:08:27;;;;;;;11.30;10.20;;;18.20;99.90;;;;;;5010018;28;20501;-77
2022/09/08 10:11:01;;;;;;;11.85;10.32;;;18.20;99.90;;;;;;5026888;28;20041;-76
2022/09/08 10:13:57;;;;;;;11.23;10.13;;;18.20;99.90;;;;;;5012307;28;20550;-82
2022/09/08 10:16:51;;;;;;;9.90;8.88;;;18.30;99.90;;;;;;5003306;28;20038;-79
2022/09/08 10:19:25;;;;;;;7.35;6.40;;;18.20;99.90;;;;;;4999827;28;20065;-79
2022/09/08 10:22:21;;;;;;;7.30;6.55;;;18.30;99.90;;;;;;5024387;28;20614;-80
2022/09/08 10:25:14;;;;;;;7.97;6.05;;;18.30;99.90;;;;;;5008610;28;20049;-80
2022/09/08 10:27:52;;;;;;;6.78;5.05;;;18.30;99.90;;;;;;5011275;28;20044;-78
2022/09/08 10:31:02;;;;;;;7.03;5.53;;;18.30;99.90;;;;;;5024233;28;20048;-75
2022/09/08 10:33:46;;;;;;;7.65;5.20;;;18.30;99.90;;;;;;4997624;28;20045;-75
2022/09/08 10:36:12;;;;;;;7.05;4.90;;;18.30;99.90;;;;;;5003906;28;20054;-75
2022/09/08 10:38:57;;;;;;;7.65;5.60;;;18.20;99.90;;;;;;5007574;28;20604;-76
2022/09/08 10:42:00;;;;;;;6.10;4.60;;;18.30;99.90;;;;;;5006105;28;20515;-78
2022/09/08 10:45:17;;;;;;;5.10;4.35;;;18.30;99.90;;;;;;5005113;28;20460;-81
2022/09/08 10:48:18;;;;;;;8.13;4.80;;;18.30;99.90;;;;;;4969668;28;20136;-78
2022/09/08 10:51:11;;;;;;;5.15;3.88;;;18.20;99.90;;;;;;5004109;28;20046;-77
2022/09/08 10:53:55;;;;;;;5.50;3.85;;;18.20;99.90;;;;;;5007549;28;20496;-79
2022/09/08 10:56:28;;;;;;;6.30;4.10;;;18.20;99.90;;;;;;5001869;28;20044;-74
2022/09/08 10:59:22;;;;;;;5.53;4.20;;;18.10;99.90;;;;;;4999755;28;20054;-76
2022/09/08 11:02:26;;;;;;;5.63;4.25;;;18.00;99.90;;;;;;4994654;28;20117;-76
2022/09/08 11:05:14;;;;;;;6.85;4.03;;;18.00;99.90;;;;;;5005590;28;20050;-77
2022/09/08 11:08:24;;;;;;;5.22;3.70;;;18.00;99.90;;;;;;5007479;28;20045;-76
2022/09/08 11:11:27;;;;;;;4.82;3.80;;;17.90;99.90;;;;;;4997585;28;20547;-76
2022/09/08 11:14:00;;;;;;;5.90;3.72;;;17.90;99.90;;;;;;5005019;28;20058;-74
2022/09/08 11:16:45;;;;;;;5.93;4.10;;;17.80;99.90;;;;;;5003589;28;20056;-76
2022/09/08 11:19:32;;;;;;;5.60;4.00;;;17.90;99.90;;;;;;5006040;28;20045;-76
2022/09/08 11:22:17;;;;;;;6.05;4.03;;;17.80;99.90;;;;;;5003628;28;20042;-75
2022/09/08 11:25:10;;;;;;;5.55;4.38;;;17.80;99.90;;;;;;5006696;28;20441;-76
2022/09/08 11:27:42;;;;;;;6.85;4.90;;;17.80;99.90;;;;;;5006016;28;20129;-74
2022/09/08 11:30:32;;;;;;;5.53;4.82;;;17.80;99.90;;;;;;5006127;28;20685;-73
2022/09/08 11:33:35;;;;;;;7.45;5.00;;;17.70;99.90;;;;;;5005747;28;20049;-73
2022/09/08 11:36:28;;;;;;;5.20;4.63;;;17.70;99.90;;;;;;5004767;28;20757;-73
2022/09/08 11:38:54;;;;;;;6.20;4.53;;;17.70;99.90;;;;;;5023873;28;20535;-74
2022/09/08 11:41:48;;;;;;;6.50;4.68;;;17.70;99.90;;;;;;5027152;28;20121;-73
2022/09/08 11:44:37;;;;;;;7.93;4.75;;;17.80;99.90;;;;;;5026501;28;20046;-74
2022/09/08 11:47:22;;;;;;;6.47;5.28;;;17.80;99.90;;;;;;5026256;28;20053;-74
2022/09/08 11:50:33;;;;;;;6.18;4.82;;;17.80;99.90;;;;;;5016791;28;20041;-74
2022/09/08 11:53:11;;;;;;;6.97;4.63;;;17.90;99.90;;;;;;5012130;28;20523;-74
2022/09/08 11:56:14;;;;;;;5.68;4.70;;;17.90;99.90;;;;;;5018167;28;20111;-74
2022/09/08 11:59:07;;;;;;;6.75;5.22;;;17.90;99.90;;;;;;5015248;28;20067;-73
2022/09/08 12:01:44;;;;;;;5.55;4.93;;;17.90;99.90;;;;;;5011318;28;20053;-71
2022/09/08 12:04:28;;;;;;;6.57;5.53;;;18.00;99.90;;;;;;5005872;28;20079;-72
2022/09/08 12:07:31;;;;;;;8.80;6.00;;;18.00;99.90;;;;;;5020446;28;20045;-73
2022/09/08 12:10:00;;;;;;;8.43;6.00;;;18.10;99.90;;;;;;5007755;28;20128;-76
2022/09/08 12:12:47;;;;;;;8.05;6.25;;;18.00;99.90;;;;;;5024046;28;20041;-75
2022/09/08 12:15:51;;;;;;;7.40;6.32;;;18.10;99.90;;;;;;5015148;28;20049;-75
2022/09/08 12:18:41;;;;;;;10.32;6.65;;;18.20;99.90;;;;;;5021150;28;20457;-75
2022/09/08 12:21:06;;;;;;;7.30;6.55;;;18.20;99.90;;;;;;5020138;28;20563;-74
2022/09/08 12:23:44;;;;;;;7.63;6.93;;;18.30;99.90;;;;;;5005777;28;20052;-75
2022/09/08 12:27:01;;;;;;;7.80;6.53;;;18.30;99.90;;;;;;5004443;28;20749;-75
2022/09/08 12:29:49;;;;;;;8.70;7.90;;;18.30;99.90;;;;;;4988524;28;20084;-73
2022/09/08 12:32:34;;;;;;;9.63;7.85;;;18.30;99.90;;;;;;4998650;28;20135;-74
2022/09/08 12:35:14;;;;;;;8.60;7.80;;;18.40;99.90;;;;;;5023988;28;20049;-74
2022/09/08 12:37:57;;;;;;;9.73;8.73;;;18.40;99.90;;;;;;4999487;28;20077;-74
2022/09/08 12:40:53;;;;;;;11.23;8.98;;;18.40;99.90;;;;;;4999384;28;20060;-75
2022/09/08 12:43:36;;;;;;;9.20;8.35;;;18.40;99.90;;;;;;4991650;28;20133;-74
2022/09/08 12:46:40;;;;;;;9.70;8.70;;;18.50;99.90;;;;;;5016602;28;20053;-74
2022/09/08 12:49:14;;;;;;;9.85;8.63;;;18.60;99.90;;;;;;5021093;28;20430;-74
2022/09/08 12:51:40;;;;;;;9.95;8.98;;;18.70;99.90;;;;;;5025506;28;20092;-74
2022/09/08 12:54:12;;;;;;;8.88;7.85;;;18.80;99.90;;;;;;5017405;28;20077;-74
2022/09/08 12:56:59;;;;;;;10.95;9.88;;;18.80;99.90;;;;;;5001358;28;20772;-74
2022/09/08 12:59:48;;;;;;;10.43;9.43;;;18.90;99.90;;;;;;4996450;28;20134;-74
2022/09/08 13:02:29;;;;;;;10.70;9.70;;;19.00;99.90;;;;;;5004163;28;20124;-74
2022/09/08 13:05:38;;;;;;;12.13;10.48;;;19.10;99.90;;;;;;5006989;28;20049;-75
2022/09/08 13:08:06;;;;;;;11.27;10.18;;;19.10;99.90;;;;;;4991124;28;20142;-75
2022/09/08 13:10:40;;;;;;;11.15;10.07;;;19.10;99.90;;;;;;5006470;28;20077;-74
2022/09/08 13:13:31;;;;;;;12.75;11.55;;;19.20;99.90;;;;;;5006116;28;20049;-74
2022/09/08 13:16:10;;;;;;;12.05;10.82;;;19.30;99.90;;;;;;5023874;28;20413;-75
2022/09/08 13:18:57;;;;;;;13.13;11.82;;;19.30;99.90;;;;;;5006696;28;20068;-74
2022/09/08 13:21:28;;;;;;;13.93;12.65;;;19.40;99.90;;;;;;5007921;28;20049;-75
2022/09/08 13:24:06;;;;;;;12.45;11.35;;;19.50;99.90;;;;;;5022069;28;20041;-75
2022/09/08 13:26:38;;;;;;;13.50;12.10;;;19.70;99.90;;;;;;5016961;28;20042;-73
2022/09/08 13:29:20;;;;;;;13.00;11.80;;;19.70;99.90;;;;;;5024909;28;20045;-73